createdAt,value
2018-12-06T00:00:54.989Z,8.50
2018-12-06T00:03:32.334Z,8.50
2018-12-06T00:06:07.354Z,8.50
2018-12-06T00:08:44.260Z,8.50
2018-12-06T00:11:21.783Z,8.50
2018-12-06T00:13:59.967Z,8.50
2018-12-06T00:16:43.222Z,8.50
2018-12-06T00:19:18.334Z,8.50
2018-12-06T00:21:53.891Z,8.50
2018-12-06T00:24:35.188Z,8.60
2018-12-06T00:27:15.136Z,8.60
2018-12-06T00:30:51.443Z,8.60
2018-12-06T00:33:29.337Z,8.60
2018-12-06T00:36:04.968Z,8.60
2018-12-06T00:38:42.213Z,8.60
2018-12-06T00:41:18.964Z,8.70
2018-12-06T00:43:57.319Z,8.70
2018-12-06T00:46:35.735Z,8.70
2018-12-06T00:49:13.211Z,8.70
2018-12-06T00:51:49.162Z,8.70
2018-12-06T00:54:26.813Z,8.70
2018-12-06T00:57:02.185Z,8.70
2018-12-06T00:59:39.121Z,8.70
2018-12-06T01:02:20.748Z,8.70
2018-12-06T01:04:56.403Z,8.70
2018-12-06T01:07:32.253Z,8.70
2018-12-06T01:10:08.394Z,8.60
2018-12-06T01:12:46.997Z,8.60
2018-12-06T01:15:23.910Z,8.60
2018-12-06T01:17:59.730Z,8.60
2018-12-06T01:20:34.995Z,8.60
2018-12-06T01:26:14.616Z,8.60
2018-12-06T01:28:51.276Z,8.60
2018-12-06T01:31:28.398Z,8.60
2018-12-06T01:34:04.101Z,8.60
2018-12-06T01:36:39.491Z,8.60
2018-12-06T01:39:16.888Z,8.60
2018-12-06T01:41:54.388Z,8.70
2018-12-06T01:44:30.870Z,8.70
2018-12-06T01:47:08.707Z,8.70
2018-12-06T01:49:45.921Z,8.70
2018-12-06T01:52:23.459Z,8.70
2018-12-06T01:55:00.896Z,8.70
2018-12-06T01:57:37.339Z,8.70
2018-12-06T02:00:13.424Z,8.70
2018-12-06T02:02:50.726Z,8.80
2018-12-06T02:05:28.072Z,8.80
2018-12-06T02:08:06.787Z,8.80
2018-12-06T02:10:42.781Z,8.80
2018-12-06T02:13:24.238Z,8.80
2018-12-06T02:16:01.539Z,8.80
2018-12-06T02:18:40.132Z,8.80
2018-12-06T02:21:16.037Z,8.70
2018-12-06T02:23:53.955Z,8.70
2018-12-06T02:26:30.293Z,8.70
2018-12-06T02:29:06.687Z,8.70
2018-12-06T02:31:42.052Z,8.70
2018-12-06T02:34:17.144Z,8.60
2018-12-06T02:37:03.640Z,8.70
2018-12-06T02:39:42.160Z,8.70
2018-12-06T02:42:19.669Z,8.50
2018-12-06T02:44:57.636Z,8.40
2018-12-06T02:47:35.633Z,8.40
2018-12-06T02:50:16.707Z,8.30
2018-12-06T02:52:53.925Z,8.30
2018-12-06T02:55:33.421Z,8.20
2018-12-06T02:58:08.459Z,8.20
2018-12-06T03:00:50.630Z,8.20
2018-12-06T03:03:30.790Z,8.20
2018-12-06T03:06:06.375Z,8.20
2018-12-06T03:08:43.823Z,8.20
2018-12-06T03:11:21.884Z,8.20
2018-12-06T03:13:57.074Z,8.10
2018-12-06T03:16:34.981Z,8.20
2018-12-06T03:19:18.605Z,8.20
2018-12-06T03:21:54.190Z,8.20
2018-12-06T03:24:32.192Z,8.20
2018-12-06T03:27:26.636Z,8.20
2018-12-06T03:30:03.697Z,8.20
2018-12-06T03:32:41.476Z,8.20
2018-12-06T03:35:16.085Z,8.20
2018-12-06T03:37:52.857Z,8.20
2018-12-06T03:40:30.460Z,8.30
2018-12-06T03:43:07.464Z,8.30
2018-12-06T03:45:41.840Z,8.30
2018-12-06T03:48:18.721Z,8.30
2018-12-06T03:50:53.951Z,8.30
2018-12-06T03:53:31.286Z,8.30
2018-12-06T03:56:07.566Z,8.30
2018-12-06T03:58:47.151Z,8.30
2018-12-06T04:01:25.065Z,8.30
2018-12-06T04:04:02.223Z,8.30
2018-12-06T04:06:36.469Z,8.40
2018-12-06T04:09:12.230Z,8.40
2018-12-06T04:11:47.611Z,8.50
2018-12-06T04:14:23.039Z,8.50
2018-12-06T04:17:00.077Z,8.50
2018-12-06T04:19:37.325Z,8.50
2018-12-06T04:22:12.699Z,8.50
2018-12-06T04:24:49.905Z,8.60
2018-12-06T04:27:28.307Z,8.60
2018-12-06T04:30:06.500Z,8.60
2018-12-06T04:32:42.567Z,8.60
2018-12-06T04:35:19.069Z,8.60
2018-12-06T04:37:56.550Z,8.70
2018-12-06T04:40:32.076Z,8.70
2018-12-06T04:43:07.549Z,8.70
2018-12-06T04:45:45.037Z,8.70
2018-12-06T04:48:22.410Z,8.70
2018-12-06T04:51:00.626Z,8.70
2018-12-06T04:53:35.851Z,8.70
2018-12-06T04:56:14.303Z,8.80
2018-12-06T04:58:51.778Z,8.80
2018-12-06T05:01:30.193Z,8.80
2018-12-06T05:04:07.974Z,8.90
2018-12-06T05:06:45.355Z,8.80
2018-12-06T05:09:20.264Z,8.80
2018-12-06T05:11:56.172Z,8.90
2018-12-06T05:14:31.388Z,8.90
2018-12-06T05:17:07.929Z,8.90
2018-12-06T05:19:45.837Z,8.90
2018-12-06T05:22:21.119Z,9.00
2018-12-06T05:24:56.206Z,8.90
2018-12-06T05:27:33.243Z,8.90
2018-12-06T05:30:09.230Z,8.90
2018-12-06T05:32:47.383Z,8.90
2018-12-06T05:35:25.578Z,8.90
2018-12-06T05:38:08.248Z,8.90
2018-12-06T05:40:48.260Z,8.90
2018-12-06T05:43:24.608Z,8.90
2018-12-06T05:46:01.125Z,8.80
2018-12-06T05:48:39.724Z,8.90
2018-12-06T05:51:17.757Z,8.90
2018-12-06T05:53:55.887Z,8.90
2018-12-06T05:56:43.981Z,8.90
2018-12-06T05:59:20.588Z,8.90
2018-12-06T06:01:56.399Z,8.90
2018-12-06T06:04:33.738Z,8.90
2018-12-06T06:07:11.760Z,8.90
2018-12-06T06:09:50.235Z,8.90
2018-12-06T06:12:30.522Z,8.90
2018-12-06T06:15:08.377Z,8.90
2018-12-06T06:17:46.232Z,8.90
2018-12-06T06:20:24.083Z,8.90
2018-12-06T06:23:05.915Z,8.90
2018-12-06T06:25:44.201Z,8.90
2018-12-06T06:28:20.983Z,8.90
2018-12-06T06:30:58.703Z,8.90
2018-12-06T06:33:37.593Z,9.00
2018-12-06T06:36:12.423Z,9.00
2018-12-06T06:38:57.699Z,9.10
2018-12-06T06:41:32.269Z,9.10
2018-12-06T06:44:06.039Z,9.20
2018-12-06T06:46:39.654Z,9.20
2018-12-06T06:49:17.341Z,9.20
2018-12-06T06:51:51.292Z,9.20
2018-12-06T06:54:24.196Z,9.20
2018-12-06T06:56:58.804Z,9.20
2018-12-06T06:59:36.020Z,9.20
2018-12-06T07:02:11.411Z,9.20
2018-12-06T07:04:44.799Z,9.20
2018-12-06T07:07:19.916Z,9.30
2018-12-06T07:09:56.042Z,9.30
2018-12-06T07:12:30.165Z,9.30
2018-12-06T07:15:05.490Z,9.30
2018-12-06T07:17:45.157Z,9.40
2018-12-06T07:20:20.712Z,9.40
2018-12-06T07:22:57.088Z,9.50
2018-12-06T07:25:30.639Z,9.40
2018-12-06T07:28:05.949Z,9.40
2018-12-06T07:30:40.972Z,9.50
2018-12-06T07:33:20.411Z,9.50
2018-12-06T07:35:53.706Z,9.60
2018-12-06T07:38:27.075Z,9.60
2018-12-06T07:41:04.944Z,9.60
2018-12-06T07:43:40.798Z,9.60
2018-12-06T07:46:14.529Z,9.60
2018-12-06T07:48:48.146Z,9.60
2018-12-06T07:51:23.586Z,9.60
2018-12-06T08:29:43.286Z,10.10
2018-12-06T08:32:29.063Z,10.10
2018-12-06T08:35:04.207Z,10.10
2018-12-06T08:37:37.561Z,10.20
2018-12-06T08:40:10.569Z,10.20
2018-12-06T08:42:46.116Z,10.20
2018-12-06T08:45:21.945Z,10.20
2018-12-06T08:47:55.569Z,10.20
2018-12-06T08:50:29.522Z,10.20
2018-12-06T08:53:03.415Z,10.20
2018-12-06T08:55:40.001Z,10.20
2018-12-06T08:58:13.695Z,10.30
2018-12-06T09:00:48.417Z,10.30
2018-12-06T09:03:21.669Z,10.40
2018-12-06T09:05:57.090Z,10.50
2018-12-06T09:08:33.322Z,10.50
2018-12-06T09:11:06.555Z,10.70
2018-12-06T09:13:39.980Z,10.80
2018-12-06T09:16:13.596Z,10.80
2018-12-06T09:18:48.895Z,10.90
2018-12-06T09:21:23.776Z,10.90
2018-12-06T09:23:57.468Z,10.90
2018-12-06T09:26:31.934Z,11.00
2018-12-06T09:29:07.008Z,11.10
2018-12-06T09:31:44.679Z,11.10
2018-12-06T09:34:20.361Z,11.20
2018-12-06T09:36:57.537Z,11.30
2018-12-06T09:39:30.691Z,11.30
2018-12-06T09:42:04.827Z,11.40
2018-12-06T09:44:38.604Z,11.40
2018-12-06T09:47:13.941Z,11.50
2018-12-06T09:49:55.211Z,11.50
2018-12-06T09:52:28.277Z,11.50
2018-12-06T09:55:03.786Z,11.50
2018-12-06T09:57:42.768Z,11.50
2018-12-06T10:00:18.186Z,11.50
2018-12-06T10:02:53.551Z,11.50
2018-12-06T10:05:26.691Z,11.60
2018-12-06T10:08:00.359Z,11.60
2018-12-06T10:10:35.667Z,11.60
2018-12-06T10:13:10.856Z,11.70
2018-12-06T10:15:45.915Z,11.70
2018-12-06T10:18:19.504Z,11.70
2018-12-06T10:20:54.112Z,11.70
2018-12-06T10:23:27.620Z,11.80
2018-12-06T10:26:01.698Z,11.90
2018-12-06T10:28:37.083Z,12.00
2018-12-06T10:31:12.397Z,12.00
2018-12-06T10:33:47.776Z,12.10
2018-12-06T10:36:25.059Z,12.10
2018-12-06T10:39:02.756Z,12.10
2018-12-06T10:49:26.409Z,12.20
2018-12-06T10:52:01.742Z,12.30
2018-12-06T10:54:37.127Z,12.30
2018-12-06T11:00:57.347Z,12.30
2018-12-06T11:03:33.417Z,12.40
2018-12-06T11:06:08.544Z,12.40
2018-12-06T11:08:46.206Z,12.40
2018-12-06T11:11:21.921Z,12.50
2018-12-06T11:13:58.931Z,12.50
2018-12-06T11:16:32.396Z,12.50
2018-12-06T11:19:09.693Z,12.40
2018-12-06T11:21:43.666Z,12.50
2018-12-06T11:24:21.113Z,12.50
2018-12-06T11:26:57.896Z,12.50
2018-12-06T11:29:35.651Z,12.50
2018-12-06T11:32:13.068Z,12.40
2018-12-06T11:34:46.701Z,12.40
2018-12-06T11:37:22.291Z,12.30
2018-12-06T11:40:01.312Z,12.30
2018-12-06T11:42:41.164Z,12.20
2018-12-06T11:48:18.305Z,12.10
2018-12-06T11:50:52.000Z,12.10
2018-12-06T11:53:27.243Z,12.10
2018-12-06T11:56:06.918Z,12.20
2018-12-06T11:58:41.875Z,12.20
2018-12-06T12:01:17.124Z,12.20
2018-12-06T12:03:56.225Z,12.20
2018-12-06T12:06:30.379Z,12.30
2018-12-06T12:09:09.427Z,12.40
2018-12-06T12:11:42.469Z,12.50
2018-12-06T12:14:20.213Z,12.50
2018-12-06T12:16:53.294Z,12.50
2018-12-06T12:19:30.568Z,12.50
2018-12-06T12:22:09.837Z,12.60
2018-12-06T12:24:43.476Z,12.60
2018-12-06T12:27:18.889Z,12.60
2018-12-06T12:29:51.657Z,12.60
2018-12-06T12:32:27.448Z,12.70
2018-12-06T12:35:04.547Z,12.80
2018-12-06T12:37:40.048Z,12.90
2018-12-06T12:40:14.184Z,13.00
2018-12-06T12:42:49.909Z,13.00
2018-12-06T12:45:23.999Z,13.10
2018-12-06T12:47:56.966Z,13.10
2018-12-06T12:50:32.569Z,13.10
2018-12-06T12:53:07.714Z,13.20
2018-12-06T12:55:41.130Z,13.10
2018-12-06T12:58:16.009Z,13.10
2018-12-06T13:00:51.309Z,13.10
2018-12-06T13:03:26.454Z,13.20
2018-12-06T13:05:59.560Z,13.00
2018-12-06T13:08:32.614Z,13.00
2018-12-06T13:11:08.540Z,13.00
2018-12-06T13:13:43.453Z,13.00
2018-12-06T13:16:19.529Z,13.00
2018-12-06T13:18:52.658Z,12.90
2018-12-06T13:21:25.930Z,12.90
2018-12-06T13:24:00.508Z,12.90
2018-12-06T13:26:36.003Z,12.90
2018-12-06T13:29:11.175Z,12.90
2018-12-06T13:31:44.654Z,12.90
2018-12-06T13:34:17.826Z,12.90
2018-12-06T13:36:50.828Z,12.90
2018-12-06T13:39:26.496Z,12.90
2018-12-06T13:42:01.450Z,12.80
2018-12-06T13:44:34.698Z,12.80
2018-12-06T13:47:11.457Z,12.70
2018-12-06T13:49:47.051Z,12.70
2018-12-06T13:52:19.995Z,12.80
2018-12-06T13:54:53.450Z,12.80
2018-12-06T13:57:30.911Z,12.80
2018-12-06T14:00:07.961Z,12.80
2018-12-06T14:02:43.798Z,12.80
2018-12-06T14:05:19.371Z,12.80
2018-12-06T14:07:54.749Z,12.80
2018-12-06T14:10:31.105Z,12.80
2018-12-06T14:13:04.648Z,12.80
2018-12-06T14:15:38.996Z,12.90
2018-12-06T14:18:13.617Z,12.90
2018-12-06T14:20:50.271Z,12.90
2018-12-06T14:23:27.499Z,12.90
2018-12-06T14:26:06.778Z,12.90
2018-12-06T14:28:42.113Z,12.80
2018-12-06T14:31:24.341Z,12.80
2018-12-06T14:34:06.067Z,12.80
2018-12-06T14:37:02.039Z,12.80
2018-12-06T14:39:32.203Z,12.80
2018-12-06T14:42:08.266Z,12.80
2018-12-06T14:44:42.730Z,12.80
2018-12-06T14:47:17.726Z,12.80
2018-12-06T14:49:53.061Z,12.80
2018-12-06T14:52:26.977Z,12.80
2018-12-06T14:55:01.471Z,12.80
2018-12-06T14:57:40.355Z,12.80
2018-12-06T15:00:17.540Z,12.80
2018-12-06T15:02:53.498Z,12.80
2018-12-06T15:05:30.413Z,12.80
2018-12-06T15:08:06.635Z,12.80
2018-12-06T15:10:47.794Z,12.80
2018-12-06T15:13:24.015Z,12.80
2018-12-06T15:16:02.469Z,12.80
2018-12-06T15:18:36.178Z,12.80
2018-12-06T15:21:11.247Z,12.80
2018-12-06T15:23:49.139Z,12.70
2018-12-06T15:26:26.902Z,12.70
2018-12-06T15:29:08.454Z,12.70
2018-12-06T15:31:42.559Z,12.70
2018-12-06T15:34:17.040Z,12.70
2018-12-06T15:36:53.601Z,12.70
2018-12-06T15:39:29.408Z,12.70
2018-12-06T15:42:12.083Z,12.70
2018-12-06T15:44:51.878Z,12.60
2018-12-06T15:47:27.805Z,12.70
2018-12-06T15:50:03.665Z,12.60
2018-12-06T15:52:43.544Z,12.60
2018-12-06T15:55:21.777Z,12.60
2018-12-06T15:57:55.725Z,12.60
2018-12-06T16:00:34.227Z,12.60
2018-12-06T16:03:10.950Z,12.60
2018-12-06T16:05:44.675Z,12.70
2018-12-06T16:08:19.709Z,12.60
2018-12-06T16:10:55.621Z,12.60
2018-12-06T16:13:33.600Z,12.60
2018-12-06T16:16:10.846Z,12.60
2018-12-06T16:18:45.356Z,12.60
2018-12-06T16:21:33.647Z,12.60
2018-12-06T16:24:29.497Z,12.60
2018-12-06T16:27:54.253Z,12.60
2018-12-06T16:30:35.322Z,12.60
2018-12-06T16:33:10.261Z,12.60
2018-12-06T16:35:46.566Z,12.60
2018-12-06T16:38:26.277Z,12.60
2018-12-06T16:41:02.761Z,12.60
2018-12-06T16:43:38.084Z,12.60
2018-12-06T16:46:13.208Z,12.60
2018-12-06T16:48:48.203Z,12.60
2018-12-06T16:51:23.884Z,12.60
2018-12-06T16:54:00.808Z,12.60
2018-12-06T16:56:37.835Z,12.60
2018-12-06T16:59:18.551Z,12.70
2018-12-06T17:01:56.718Z,12.70
2018-12-06T17:04:31.764Z,12.70
2018-12-06T17:07:08.632Z,12.70
2018-12-06T17:09:45.050Z,12.70
2018-12-06T17:12:21.399Z,12.70
2018-12-06T17:14:57.866Z,12.70
2018-12-06T17:17:33.136Z,12.70
2018-12-06T17:20:08.066Z,12.70
2018-12-06T17:22:47.740Z,12.70
2018-12-06T17:25:24.112Z,12.80
2018-12-06T17:28:00.595Z,12.70
2018-12-06T17:30:41.202Z,12.80
2018-12-06T17:33:15.866Z,12.80
2018-12-06T17:35:53.592Z,12.80
2018-12-06T17:38:28.640Z,12.80
2018-12-06T17:41:03.796Z,12.80
2018-12-06T17:43:40.437Z,12.80
2018-12-06T17:46:31.633Z,12.80
2018-12-06T17:51:55.332Z,12.80
2018-12-06T17:54:31.475Z,12.80
2018-12-06T17:57:06.307Z,12.80
2018-12-06T17:59:47.760Z,12.90
2018-12-06T18:02:28.938Z,12.90
2018-12-06T18:05:03.813Z,12.90
2018-12-06T18:07:38.123Z,12.90
2018-12-06T18:10:15.497Z,12.90
2018-12-06T18:12:52.594Z,12.90
2018-12-06T18:15:27.405Z,12.90
2018-12-06T18:18:04.769Z,12.90
2018-12-06T18:20:39.060Z,12.90
2018-12-06T18:23:16.082Z,12.90
2018-12-06T18:25:50.762Z,12.90
2018-12-06T18:28:29.858Z,12.90
2018-12-06T18:51:48.731Z,12.90
2018-12-06T18:54:34.934Z,12.90
2018-12-06T18:57:09.006Z,12.90
2018-12-06T18:59:48.077Z,12.80
2018-12-06T19:02:31.310Z,12.80
2018-12-06T19:05:05.782Z,12.70
2018-12-06T19:07:43.547Z,12.70
2018-12-06T19:10:17.194Z,12.70
2018-12-06T19:12:54.271Z,12.70
2018-12-06T19:15:28.014Z,12.70
2018-12-06T19:18:03.554Z,12.70
2018-12-06T19:20:40.735Z,12.70
2018-12-06T19:23:16.256Z,12.70
2018-12-06T19:25:52.415Z,12.70
2018-12-06T19:28:28.826Z,12.70
2018-12-06T19:31:05.915Z,12.70
2018-12-06T19:33:43.154Z,12.70
2018-12-06T19:36:22.635Z,12.70
2018-12-06T19:39:00.755Z,12.70
2018-12-06T19:41:37.800Z,12.80
2018-12-06T19:44:13.945Z,12.80
2018-12-06T19:46:50.988Z,12.80
2018-12-06T19:49:27.195Z,12.80
2018-12-06T19:52:05.690Z,12.80
2018-12-06T20:04:53.962Z,12.90
2018-12-06T20:07:29.263Z,12.90
2018-12-06T20:10:12.720Z,12.90
2018-12-06T20:12:49.972Z,12.90
2018-12-06T20:15:24.451Z,12.90
2018-12-06T20:18:03.575Z,12.90
2018-12-06T20:20:38.094Z,13.00
2018-12-06T20:23:22.812Z,12.90
2018-12-06T20:26:03.087Z,12.90
2018-12-06T20:28:40.111Z,12.90
2018-12-06T20:31:18.674Z,12.90
2018-12-06T20:33:54.767Z,12.90
2018-12-06T20:36:30.130Z,12.90
2018-12-06T20:39:09.209Z,13.00
2018-12-06T20:41:47.340Z,13.00
2018-12-06T20:44:24.912Z,13.00
2018-12-06T20:47:00.930Z,13.00
2018-12-06T20:49:38.875Z,13.00
2018-12-06T20:52:23.741Z,13.10
2018-12-06T20:55:01.804Z,13.00
2018-12-06T20:57:39.712Z,13.10
2018-12-06T21:00:18.057Z,13.00
2018-12-06T21:02:52.609Z,13.10
2018-12-06T21:05:26.715Z,13.10
2018-12-06T21:08:05.241Z,13.10
2018-12-06T21:10:42.354Z,13.10
2018-12-06T21:13:16.265Z,13.10
2018-12-06T21:15:57.461Z,13.10
2018-12-06T21:18:34.114Z,13.10
2018-12-06T21:21:15.653Z,13.10
2018-12-06T21:23:49.794Z,13.10
2018-12-06T21:26:26.400Z,13.20
2018-12-06T21:29:01.192Z,13.20
2018-12-06T21:31:37.895Z,13.20
2018-12-06T21:34:20.178Z,13.20
2018-12-06T21:36:56.936Z,13.10
2018-12-06T21:39:34.844Z,13.10
2018-12-06T21:42:11.686Z,13.10
2018-12-06T21:44:51.215Z,13.10
2018-12-06T21:47:27.938Z,13.10
2018-12-06T21:50:03.779Z,13.10
2018-12-06T21:55:50.686Z,13.00
2018-12-06T21:58:33.646Z,13.10
2018-12-06T22:01:07.555Z,13.00
2018-12-06T22:03:44.437Z,13.10
2018-12-06T22:06:17.744Z,13.10
2018-12-06T22:08:51.297Z,13.00
2018-12-06T22:11:27.417Z,13.00
2018-12-06T22:14:01.470Z,13.00
2018-12-06T22:16:38.763Z,13.00
2018-12-06T22:19:13.900Z,13.10
2018-12-06T22:21:48.519Z,13.10
2018-12-06T22:24:22.261Z,13.10
2018-12-06T22:26:55.845Z,13.10
2018-12-06T22:29:30.766Z,13.00
2018-12-06T22:32:09.957Z,13.00
2018-12-06T22:34:46.791Z,12.90
2018-12-06T22:37:23.943Z,12.70
2018-12-06T22:40:02.705Z,12.50
2018-12-06T22:42:40.710Z,12.40
2018-12-06T22:45:27.373Z,12.30
2018-12-06T22:48:03.032Z,12.20
2018-12-06T22:50:41.256Z,12.10
2018-12-06T22:53:15.099Z,12.10
2018-12-06T22:55:52.676Z,12.00
2018-12-06T22:58:30.590Z,12.00
2018-12-06T23:01:11.323Z,12.00
2018-12-06T23:03:46.427Z,12.00
2018-12-06T23:06:21.768Z,11.90
2018-12-06T23:08:58.772Z,11.90
2018-12-06T23:11:36.731Z,11.90
2018-12-06T23:14:11.848Z,11.90
2018-12-06T23:16:46.933Z,11.80
2018-12-06T23:19:24.120Z,11.80
2018-12-06T23:22:03.657Z,11.80
2018-12-06T23:24:37.634Z,11.70
2018-12-06T23:27:15.904Z,11.80
2018-12-06T23:29:50.866Z,11.70
2018-12-06T23:32:27.683Z,11.70
2018-12-06T23:35:02.275Z,11.70
2018-12-06T23:37:38.140Z,11.70
2018-12-06T23:40:12.987Z,11.70
2018-12-06T23:42:49.126Z,11.70
2018-12-06T23:45:24.470Z,11.70
2018-12-06T23:48:01.941Z,11.70
2018-12-06T23:50:38.836Z,11.70
2018-12-06T23:53:14.365Z,11.70
2018-12-06T23:55:50.874Z,11.70
2018-12-06T23:58:26.719Z,11.70
